createdAt,value
2024-02-19T00:00:14.095Z,6.03
2024-02-19T00:02:40.988Z,6.06
2024-02-19T00:05:08.317Z,6.10
2024-02-19T00:07:35.279Z,6.12
2024-02-19T00:10:02.700Z,6.13
2024-02-19T00:12:29.595Z,6.12
2024-02-19T00:14:56.365Z,6.13
2024-02-19T00:17:23.177Z,6.12
2024-02-19T00:19:49.902Z,6.12
2024-02-19T00:22:16.729Z,6.13
2024-02-19T00:24:44.871Z,6.13
2024-02-19T00:27:11.724Z,6.16
2024-02-19T00:29:38.511Z,6.20
2024-02-19T00:32:05.760Z,6.24
2024-02-19T00:34:32.452Z,6.25
2024-02-19T00:36:59.292Z,6.24
2024-02-19T00:39:26.405Z,6.26
2024-02-19T00:41:53.085Z,6.26
2024-02-19T00:44:20.486Z,6.28
2024-02-19T00:46:47.173Z,6.31
2024-02-19T00:49:14.121Z,6.36
2024-02-19T00:51:40.999Z,6.44
2024-02-19T00:54:07.754Z,6.53
2024-02-19T00:56:34.459Z,6.61
2024-02-19T00:59:01.441Z,6.68
2024-02-19T01:01:29.386Z,6.71
2024-02-19T01:03:56.242Z,6.72
2024-02-19T01:06:24.737Z,6.72
2024-02-19T01:08:51.532Z,6.71
2024-02-19T01:11:18.370Z,6.71
2024-02-19T01:13:45.586Z,6.71
2024-02-19T01:16:12.433Z,6.74
2024-02-19T01:18:39.372Z,6.81
2024-02-19T01:21:06.477Z,6.84
2024-02-19T01:23:33.750Z,6.88
2024-02-19T01:26:00.538Z,6.89
2024-02-19T01:28:27.399Z,6.89
2024-02-19T01:30:54.213Z,6.89
2024-02-19T01:33:22.822Z,6.88
2024-02-19T01:35:49.809Z,6.87
2024-02-19T01:38:17.651Z,6.85
2024-02-19T01:40:44.581Z,6.85
2024-02-19T01:43:12.099Z,6.85
2024-02-19T01:45:39.029Z,6.84
2024-02-19T01:48:07.229Z,6.86
2024-02-19T01:50:36.323Z,6.91
2024-02-19T01:53:08.241Z,6.96
2024-02-19T01:55:36.900Z,6.99
2024-02-19T01:58:04.347Z,7.01
2024-02-19T02:00:32.858Z,7.02
2024-02-19T02:03:00.482Z,7.04
2024-02-19T02:05:27.342Z,7.02
2024-02-19T02:07:54.862Z,7.02
2024-02-19T02:10:21.791Z,7.02
2024-02-19T02:12:48.792Z,7.00
2024-02-19T02:15:15.543Z,6.98
2024-02-19T02:17:45.485Z,7.00
2024-02-19T02:20:12.773Z,7.03
2024-02-19T02:22:40.162Z,7.04
2024-02-19T02:25:07.529Z,7.05
2024-02-19T02:27:34.433Z,7.02
2024-02-19T02:30:04.258Z,6.98
2024-02-19T02:32:31.415Z,6.96
2024-02-19T02:34:58.333Z,6.93
2024-02-19T02:37:25.392Z,6.87
2024-02-19T02:39:55.311Z,6.83
2024-02-19T02:42:22.088Z,6.84
2024-02-19T02:44:48.817Z,6.85
2024-02-19T02:47:15.562Z,6.87
2024-02-19T02:49:42.394Z,6.88
2024-02-19T02:52:09.356Z,6.88
2024-02-19T02:54:36.387Z,6.89
2024-02-19T02:57:03.227Z,6.90
2024-02-19T02:59:30.036Z,6.89
2024-02-19T03:01:56.920Z,6.88
2024-02-19T03:04:23.732Z,6.88
2024-02-19T03:06:50.803Z,6.89
2024-02-19T03:09:17.667Z,6.94
2024-02-19T03:11:44.327Z,6.98
2024-02-19T03:14:15.263Z,7.02
2024-02-19T03:16:42.117Z,7.04
2024-02-19T03:19:12.330Z,7.05
2024-02-19T03:21:39.282Z,7.06
2024-02-19T03:24:06.743Z,7.07
2024-02-19T03:26:40.259Z,7.06
2024-02-19T03:29:13.726Z,7.12
2024-02-19T03:31:42.236Z,7.15
2024-02-19T03:34:09.612Z,7.21
2024-02-19T03:36:36.779Z,7.25
2024-02-19T03:39:05.796Z,7.25
2024-02-19T03:41:33.637Z,7.26
2024-02-19T03:44:00.807Z,7.25
2024-02-19T03:46:27.768Z,7.25
2024-02-19T03:48:56.429Z,7.24
2024-02-19T03:51:23.939Z,7.27
2024-02-19T03:53:50.931Z,7.33
2024-02-19T03:56:19.189Z,7.34
2024-02-19T03:58:46.035Z,7.33
2024-02-19T04:01:13.227Z,7.32
2024-02-19T04:03:40.362Z,7.31
2024-02-19T04:06:07.294Z,7.32
2024-02-19T04:08:34.330Z,7.36
2024-02-19T04:11:03.358Z,7.40
2024-02-19T04:13:30.114Z,7.41
2024-02-19T04:15:57.439Z,7.39
2024-02-19T04:18:24.647Z,7.39
2024-02-19T04:20:51.482Z,7.36
2024-02-19T04:23:18.217Z,7.34
2024-02-19T04:25:44.901Z,7.31
2024-02-19T04:28:11.810Z,7.31
2024-02-19T04:30:39.791Z,7.32
2024-02-19T04:33:07.129Z,7.31
2024-02-19T04:35:34.091Z,7.28
2024-02-19T04:38:01.023Z,7.26
2024-02-19T04:40:27.902Z,7.21
2024-02-19T04:42:54.702Z,7.21
2024-02-19T04:45:21.666Z,7.22
2024-02-19T04:47:48.763Z,7.23
2024-02-19T04:50:16.374Z,7.25
2024-02-19T04:52:43.295Z,7.25
2024-02-19T04:55:10.761Z,7.23
2024-02-19T04:57:37.811Z,7.19
2024-02-19T05:00:05.641Z,7.14
2024-02-19T05:02:32.936Z,7.09
2024-02-19T05:04:59.858Z,7.04
2024-02-19T05:07:26.842Z,7.02
2024-02-19T05:09:54.182Z,7.01
2024-02-19T05:12:20.897Z,7.01
2024-02-19T05:14:47.616Z,7.02
2024-02-19T05:17:14.492Z,7.02
2024-02-19T05:19:41.393Z,7.02
2024-02-19T05:22:08.715Z,7.04
2024-02-19T05:24:35.445Z,7.04
2024-02-19T05:27:02.343Z,7.05
2024-02-19T05:29:29.092Z,7.06
2024-02-19T05:31:56.172Z,7.09
2024-02-19T05:34:23.009Z,7.13
2024-02-19T05:36:49.772Z,7.13
2024-02-19T05:39:16.535Z,7.12
2024-02-19T05:41:43.350Z,7.10
2024-02-19T05:44:11.160Z,7.08
2024-02-19T05:46:38.105Z,7.09
2024-02-19T05:49:05.128Z,7.11
2024-02-19T05:51:32.031Z,7.12
2024-02-19T05:53:58.739Z,7.12
2024-02-19T05:56:27.618Z,7.09
2024-02-19T05:58:55.180Z,7.07
2024-02-19T06:01:22.340Z,7.10
2024-02-19T06:03:49.283Z,7.14
2024-02-19T06:06:16.330Z,7.17
2024-02-19T06:08:43.319Z,7.22
2024-02-19T06:11:10.260Z,7.23
2024-02-19T06:13:37.086Z,7.24
2024-02-19T06:16:04.078Z,7.26
2024-02-19T06:18:31.106Z,7.26
2024-02-19T06:20:58.129Z,7.30
2024-02-19T06:23:24.911Z,7.34
2024-02-19T06:25:51.626Z,7.37
2024-02-19T06:28:18.700Z,7.38
2024-02-19T06:30:46.209Z,7.38
2024-02-19T06:33:13.057Z,7.39
2024-02-19T06:35:41.044Z,7.38
2024-02-19T06:38:07.741Z,7.41
2024-02-19T06:40:34.559Z,7.45
2024-02-19T06:43:02.107Z,7.48
2024-02-19T06:45:29.016Z,7.50
2024-02-19T06:47:55.799Z,7.52
2024-02-19T06:50:22.975Z,7.53
2024-02-19T06:52:49.776Z,7.55
2024-02-19T06:55:17.901Z,7.57
2024-02-19T06:57:45.255Z,7.57
2024-02-19T07:00:13.718Z,7.63
2024-02-19T07:02:41.010Z,7.66
2024-02-19T07:05:09.378Z,7.70
2024-02-19T07:07:37.513Z,7.73
2024-02-19T07:10:05.244Z,7.76
2024-02-19T07:12:32.280Z,7.77
2024-02-19T07:14:59.832Z,7.77
2024-02-19T07:17:28.221Z,7.79
2024-02-19T07:19:55.260Z,7.84
2024-02-19T07:22:22.483Z,7.88
2024-02-19T07:24:49.485Z,7.88
2024-02-19T07:27:16.391Z,7.89
2024-02-19T07:29:43.465Z,7.90
2024-02-19T07:32:10.368Z,7.91
2024-02-19T07:34:39.002Z,7.95
2024-02-19T07:37:06.594Z,8.00
2024-02-19T07:39:33.402Z,8.06
2024-02-19T07:42:01.506Z,8.10
2024-02-19T07:44:28.273Z,8.12
2024-02-19T07:46:55.267Z,8.15
2024-02-19T07:49:22.275Z,8.17
2024-02-19T07:51:49.174Z,8.17
2024-02-19T07:54:15.964Z,8.17
2024-02-19T07:56:42.700Z,8.21
2024-02-19T07:59:09.433Z,8.26
2024-02-19T08:01:36.257Z,8.33
2024-02-19T08:04:03.436Z,8.37
2024-02-19T08:06:30.539Z,8.40
2024-02-19T08:08:57.365Z,8.42
2024-02-19T08:11:24.705Z,8.44
2024-02-19T08:13:52.938Z,8.47
2024-02-19T08:16:19.888Z,8.48
2024-02-19T08:18:46.942Z,8.54
2024-02-19T08:21:14.607Z,8.61
2024-02-19T08:23:41.311Z,8.65
2024-02-19T08:26:08.229Z,8.68
2024-02-19T08:28:35.150Z,8.69
2024-02-19T08:31:02.096Z,8.70
2024-02-19T08:33:28.994Z,8.67
2024-02-19T08:35:55.840Z,8.69
2024-02-19T08:38:22.618Z,8.70
2024-02-19T08:40:49.425Z,8.72
2024-02-19T08:43:16.311Z,8.70
2024-02-19T08:45:43.111Z,8.69
2024-02-19T08:48:10.152Z,8.70
2024-02-19T08:50:38.365Z,8.71
2024-02-19T08:53:05.182Z,8.72
2024-02-19T08:55:33.012Z,8.73
2024-02-19T08:57:59.841Z,8.73
2024-02-19T09:00:26.700Z,8.75
2024-02-19T09:02:53.763Z,8.81
2024-02-19T09:05:21.683Z,8.90
2024-02-19T09:07:48.997Z,8.97
2024-02-19T09:10:16.510Z,9.04
2024-02-19T09:12:43.699Z,9.07
2024-02-19T09:15:11.159Z,9.07
2024-02-19T09:17:37.979Z,9.08
2024-02-19T09:20:06.407Z,9.07
2024-02-19T09:22:34.573Z,9.06
2024-02-19T09:25:01.472Z,9.08
2024-02-19T09:27:30.859Z,9.11
2024-02-19T09:30:00.620Z,9.12
2024-02-19T09:32:27.370Z,9.14
2024-02-19T09:34:54.129Z,9.19
2024-02-19T09:37:25.873Z,9.20
2024-02-19T09:39:59.895Z,9.18
2024-02-19T09:42:28.391Z,9.10
2024-02-19T09:45:06.749Z,9.03
2024-02-19T09:47:35.351Z,8.97
2024-02-19T09:50:03.569Z,8.91
2024-02-19T09:52:32.131Z,8.86
2024-02-19T09:54:59.390Z,8.82
2024-02-19T09:57:27.537Z,8.80
2024-02-19T09:59:55.562Z,8.79
2024-02-19T10:02:22.409Z,8.80
2024-02-19T10:04:49.905Z,8.78
2024-02-19T10:07:19.245Z,8.82
2024-02-19T10:09:48.550Z,8.89
2024-02-19T10:12:15.392Z,8.95
2024-02-19T10:14:42.276Z,8.98
2024-02-19T10:17:11.259Z,8.99
2024-02-19T10:19:39.840Z,9.01
2024-02-19T10:22:09.090Z,9.04
2024-02-19T10:24:37.492Z,9.05
2024-02-19T10:27:05.287Z,9.04
2024-02-19T10:29:31.986Z,9.02
2024-02-19T10:31:58.734Z,8.99
2024-02-19T10:34:25.767Z,8.96
2024-02-19T10:36:53.364Z,8.93
2024-02-19T10:39:20.362Z,8.94
2024-02-19T10:41:47.266Z,8.94
2024-02-19T10:44:14.061Z,8.93
2024-02-19T10:46:41.237Z,8.91
2024-02-19T10:49:08.738Z,8.90
2024-02-19T10:51:36.891Z,8.89
2024-02-19T10:54:05.879Z,8.85
2024-02-19T10:56:41.263Z,8.82
2024-02-19T10:59:09.252Z,8.79
2024-02-19T11:01:40.669Z,8.78
2024-02-19T11:04:18.221Z,8.76
2024-02-19T11:06:56.786Z,8.73
2024-02-19T11:09:56.525Z,8.72
2024-02-19T11:12:23.456Z,8.78
2024-02-19T11:14:51.435Z,8.84
2024-02-19T11:17:18.735Z,8.86
2024-02-19T11:19:45.610Z,8.86
2024-02-19T11:22:21.102Z,8.84
2024-02-19T11:24:48.981Z,8.84
2024-02-19T11:27:16.294Z,8.85
2024-02-19T11:29:47.899Z,8.87
2024-02-19T11:32:21.633Z,8.89
2024-02-19T11:34:51.775Z,8.87
2024-02-19T11:37:19.871Z,8.84
2024-02-19T11:39:46.762Z,8.81
2024-02-19T11:42:17.702Z,8.79
2024-02-19T11:44:46.704Z,8.77
2024-02-19T11:47:15.835Z,8.76
2024-02-19T11:49:44.245Z,8.74
2024-02-19T11:52:12.541Z,8.71
2024-02-19T11:54:40.894Z,8.68
2024-02-19T11:57:12.966Z,8.65
2024-02-19T11:59:39.828Z,8.65
2024-02-19T12:02:07.797Z,8.65
2024-02-19T12:04:36.735Z,8.70
2024-02-19T12:07:04.133Z,8.76
2024-02-19T12:09:33.704Z,8.78
2024-02-19T12:12:00.840Z,8.77
2024-02-19T12:14:27.761Z,8.76
2024-02-19T12:16:58.822Z,8.74
2024-02-19T12:19:26.643Z,8.75
2024-02-19T12:21:54.939Z,8.74
2024-02-19T12:24:21.834Z,8.69
2024-02-19T12:26:48.755Z,8.63
2024-02-19T12:29:15.616Z,8.59
2024-02-19T12:31:42.349Z,8.54
2024-02-19T12:34:09.527Z,8.47
2024-02-19T12:36:37.526Z,8.43
2024-02-19T12:39:07.966Z,8.38
2024-02-19T12:41:35.417Z,8.32
2024-02-19T12:44:02.335Z,8.28
2024-02-19T12:46:31.979Z,8.32
2024-02-19T12:49:02.501Z,8.33
2024-02-19T12:51:35.003Z,8.29
2024-02-19T12:54:02.542Z,8.26
2024-02-19T12:56:29.313Z,8.25
2024-02-19T12:58:56.206Z,8.23
2024-02-19T13:01:31.065Z,8.17
2024-02-19T13:04:00.684Z,8.10
2024-02-19T13:06:28.368Z,8.02
2024-02-19T13:08:55.800Z,7.95
2024-02-19T13:11:23.176Z,7.89
2024-02-19T13:13:49.936Z,7.85
2024-02-19T13:16:19.737Z,7.85
2024-02-19T13:18:51.682Z,7.82
2024-02-19T13:21:21.075Z,7.76
2024-02-19T13:23:47.931Z,7.72
2024-02-19T13:26:14.771Z,7.70
2024-02-19T13:28:41.515Z,7.68
2024-02-19T13:31:08.493Z,7.66
2024-02-19T13:33:35.354Z,7.63
2024-02-19T13:36:02.280Z,7.59
2024-02-19T13:38:31.119Z,7.61
2024-02-19T13:40:58.855Z,7.67
2024-02-19T13:43:25.957Z,7.71
2024-02-19T13:46:02.794Z,7.72
2024-02-19T13:48:30.729Z,7.74
2024-02-19T13:50:59.469Z,7.76
2024-02-19T13:53:28.104Z,7.79
2024-02-19T13:55:56.521Z,7.83
2024-02-19T13:58:23.948Z,7.86
2024-02-19T14:00:53.079Z,7.90
2024-02-19T14:03:20.438Z,7.91
2024-02-19T14:05:50.220Z,7.91
2024-02-19T14:08:18.753Z,7.96
2024-02-19T14:10:48.475Z,7.99
2024-02-19T14:13:17.204Z,8.03
2024-02-19T14:15:44.622Z,8.07
2024-02-19T14:18:11.693Z,8.08
2024-02-19T14:20:38.592Z,8.20
2024-02-19T14:23:08.514Z,8.31
2024-02-19T14:25:40.328Z,8.40
2024-02-19T14:28:10.885Z,8.46
2024-02-19T14:30:38.146Z,8.46
2024-02-19T14:33:05.316Z,8.49
2024-02-19T14:35:32.438Z,8.52
2024-02-19T14:38:01.776Z,8.55
2024-02-19T14:40:28.876Z,8.52
2024-02-19T14:42:55.957Z,8.48
2024-02-19T14:45:23.572Z,8.46
2024-02-19T14:47:51.073Z,8.42
2024-02-19T14:50:18.076Z,8.38
2024-02-19T14:52:45.214Z,8.32
2024-02-19T14:55:13.606Z,8.25
2024-02-19T14:57:45.624Z,8.23
2024-02-19T15:00:18.316Z,8.23
2024-02-19T15:02:46.584Z,8.22
2024-02-19T15:05:13.873Z,8.18
2024-02-19T15:07:45.768Z,8.16
2024-02-19T15:10:16.434Z,8.14
2024-02-19T15:12:44.583Z,8.11
2024-02-19T15:15:14.677Z,8.07
2024-02-19T15:17:42.510Z,8.06
2024-02-19T15:20:10.593Z,8.04
2024-02-19T15:22:37.971Z,8.05
2024-02-19T15:25:07.545Z,8.04
2024-02-19T15:27:34.694Z,8.02
2024-02-19T15:30:01.420Z,8.01
2024-02-19T15:32:28.256Z,7.99
2024-02-19T15:34:55.189Z,7.97
2024-02-19T15:37:23.408Z,7.93
2024-02-19T15:39:51.137Z,7.92
2024-02-19T15:42:18.407Z,7.92
2024-02-19T15:44:47.137Z,7.90
2024-02-19T15:47:14.296Z,7.87
2024-02-19T15:49:41.992Z,7.83
2024-02-19T15:52:09.111Z,7.78
2024-02-19T15:54:40.617Z,7.73
2024-02-19T15:57:07.561Z,7.72
2024-02-19T15:59:34.491Z,7.74
2024-02-19T16:02:01.675Z,7.73
2024-02-19T16:04:28.861Z,7.70
2024-02-19T16:06:56.021Z,7.68
2024-02-19T16:09:22.933Z,7.66
2024-02-19T16:11:51.587Z,7.64
2024-02-19T16:14:18.434Z,7.59
2024-02-19T16:16:45.211Z,7.58
2024-02-19T16:19:12.171Z,7.60
2024-02-19T16:21:40.133Z,7.63
2024-02-19T16:24:08.372Z,7.63
2024-02-19T16:26:35.476Z,7.61
2024-02-19T16:29:02.276Z,7.59
2024-02-19T16:31:29.288Z,7.55
2024-02-19T16:33:56.532Z,7.52
2024-02-19T16:36:26.602Z,7.50
2024-02-19T16:38:54.320Z,7.48
2024-02-19T16:41:21.076Z,7.51
2024-02-19T16:43:47.866Z,7.55
2024-02-19T16:46:15.003Z,7.57
2024-02-19T16:48:42.899Z,7.57
2024-02-19T16:51:15.940Z,7.57
2024-02-19T16:53:42.714Z,7.56
2024-02-19T16:56:12.265Z,7.56
2024-02-19T16:58:39.741Z,7.54
2024-02-19T17:01:10.612Z,7.54
2024-02-19T17:03:38.253Z,7.53
2024-02-19T17:06:05.274Z,7.56
2024-02-19T17:08:32.341Z,7.58
2024-02-19T17:10:59.305Z,7.62
2024-02-19T17:13:26.334Z,7.63
2024-02-19T17:15:53.325Z,7.64
2024-02-19T17:18:20.212Z,7.63
2024-02-19T17:20:47.014Z,7.62
2024-02-19T17:23:19.220Z,7.62
2024-02-19T17:25:49.395Z,7.60
2024-02-19T17:28:16.904Z,7.59
2024-02-19T17:30:45.465Z,7.58
2024-02-19T17:33:12.389Z,7.56
2024-02-19T17:35:41.478Z,7.58
2024-02-19T17:38:10.344Z,7.62
2024-02-19T17:40:37.150Z,7.66
2024-02-19T17:43:05.956Z,7.68
2024-02-19T17:45:32.951Z,7.68
2024-02-19T17:47:59.998Z,7.68
2024-02-19T17:50:26.900Z,7.67
2024-02-19T17:52:53.843Z,7.66
2024-02-19T17:55:20.921Z,7.65
2024-02-19T17:57:49.484Z,7.62
2024-02-19T18:00:16.922Z,7.65
2024-02-19T18:02:44.578Z,7.68
2024-02-19T18:05:11.605Z,7.70
2024-02-19T18:07:38.800Z,7.70
2024-02-19T18:10:06.137Z,7.68
2024-02-19T18:12:32.983Z,7.67
2024-02-19T18:15:00.688Z,7.65
2024-02-19T18:17:28.204Z,7.62
2024-02-19T18:19:55.925Z,7.62
2024-02-19T18:22:23.226Z,7.65
2024-02-19T18:24:52.094Z,7.67
2024-02-19T18:27:19.660Z,7.67
2024-02-19T18:29:46.463Z,7.68
2024-02-19T18:32:16.238Z,7.66
2024-02-19T18:34:47.880Z,7.66
2024-02-19T18:37:15.271Z,7.64
2024-02-19T18:39:42.565Z,7.65
2024-02-19T18:42:11.607Z,7.68
2024-02-19T18:44:38.650Z,7.69
2024-02-19T18:47:06.392Z,7.69
2024-02-19T18:49:33.980Z,7.68
2024-02-19T18:52:03.028Z,7.69
2024-02-19T18:54:32.588Z,7.69
2024-02-19T18:57:05.330Z,7.68
2024-02-19T18:59:32.374Z,7.67
2024-02-19T19:02:02.278Z,7.65
2024-02-19T19:04:29.390Z,7.62
2024-02-19T19:06:56.758Z,7.65
2024-02-19T19:09:24.332Z,7.69
2024-02-19T19:11:51.382Z,7.73
2024-02-19T19:14:19.756Z,7.75
2024-02-19T19:16:47.334Z,7.75
2024-02-19T19:19:14.412Z,7.74
2024-02-19T19:21:43.813Z,7.75
2024-02-19T19:24:11.324Z,7.75
2024-02-19T19:26:38.137Z,7.72
2024-02-19T19:29:05.347Z,7.67
2024-02-19T19:31:33.370Z,7.68
2024-02-19T19:34:01.157Z,7.71
2024-02-19T19:36:28.344Z,7.71
2024-02-19T19:38:55.308Z,7.71
2024-02-19T19:41:22.137Z,7.69
2024-02-19T19:43:50.980Z,7.69
2024-02-19T19:46:18.290Z,7.68
2024-02-19T19:48:47.264Z,7.67
2024-02-19T19:51:14.774Z,7.65
2024-02-19T19:53:41.744Z,7.66
2024-02-19T19:56:10.631Z,7.65
2024-02-19T19:58:39.279Z,7.64
2024-02-19T20:03:38.123Z,7.64
2024-02-19T20:06:05.728Z,7.66
2024-02-19T20:08:32.854Z,7.69
2024-02-19T20:11:00.287Z,7.70
2024-02-19T20:13:28.250Z,7.71
2024-02-19T20:15:56.681Z,7.70
2024-02-19T20:18:28.924Z,7.67
2024-02-19T20:20:56.810Z,7.67
2024-02-19T20:23:24.986Z,7.65
2024-02-19T20:25:52.904Z,7.63
2024-02-19T20:28:19.655Z,7.64
2024-02-19T20:30:47.264Z,7.67
2024-02-19T20:33:14.323Z,7.72
2024-02-19T20:35:41.416Z,7.73
2024-02-19T20:38:08.729Z,7.68
2024-02-19T20:40:36.155Z,7.60
2024-02-19T20:43:02.970Z,7.54
2024-02-19T20:45:29.770Z,7.48
2024-02-19T20:47:56.742Z,7.41
2024-02-19T20:50:24.182Z,7.36
2024-02-19T20:52:51.062Z,7.32
2024-02-19T20:55:17.883Z,7.28
2024-02-19T20:57:45.476Z,7.25
2024-02-19T21:00:13.032Z,7.19
2024-02-19T21:02:42.794Z,7.10
2024-02-19T21:05:12.524Z,7.02
2024-02-19T21:07:39.431Z,6.99
2024-02-19T21:10:07.196Z,7.00
2024-02-19T21:12:34.335Z,7.03
2024-02-19T21:15:01.240Z,7.08
2024-02-19T21:17:29.936Z,7.14
2024-02-19T21:20:01.169Z,7.18
2024-02-19T21:22:29.125Z,7.22
2024-02-19T21:25:00.600Z,7.23
2024-02-19T21:27:28.980Z,7.23
2024-02-19T21:29:58.173Z,7.24
2024-02-19T21:32:26.975Z,7.19
2024-02-19T21:34:54.457Z,7.23
2024-02-19T21:37:21.539Z,7.25
2024-02-19T21:39:48.450Z,7.25
2024-02-19T21:42:20.704Z,7.27
2024-02-19T21:44:50.269Z,7.28
2024-02-19T21:47:17.705Z,7.28
2024-02-19T21:49:45.444Z,7.28
2024-02-19T21:52:13.127Z,7.26
2024-02-19T21:54:40.518Z,7.26
2024-02-19T21:57:07.659Z,7.28
2024-02-19T21:59:34.350Z,7.28
2024-02-19T22:02:04.965Z,7.30
2024-02-19T22:04:31.839Z,7.34
2024-02-19T22:06:58.860Z,7.39
2024-02-19T22:09:25.938Z,7.43
2024-02-19T22:11:52.671Z,7.46
2024-02-19T22:14:19.486Z,7.47
2024-02-19T22:16:46.207Z,7.47
2024-02-19T22:19:13.537Z,7.47
2024-02-19T22:21:40.562Z,7.48
2024-02-19T22:24:07.786Z,7.49
2024-02-19T22:26:34.651Z,7.48
2024-02-19T22:29:01.488Z,7.48
2024-02-19T22:31:28.504Z,7.48
2024-02-19T22:33:55.558Z,7.48
2024-02-19T22:36:22.686Z,7.47
2024-02-19T22:38:49.420Z,7.48
2024-02-19T22:41:16.227Z,7.51
2024-02-19T22:43:43.042Z,7.54
2024-02-19T22:46:10.030Z,7.57
2024-02-19T22:48:37.002Z,7.58
2024-02-19T22:51:03.889Z,7.57
2024-02-19T22:53:31.349Z,7.55
2024-02-19T22:55:58.196Z,7.54
2024-02-19T22:58:31.787Z,7.52
2024-02-19T23:01:02.542Z,7.50
2024-02-19T23:03:30.193Z,7.49
2024-02-19T23:05:57.390Z,7.48
2024-02-19T23:08:24.630Z,7.45
2024-02-19T23:10:53.217Z,7.46
2024-02-19T23:13:21.107Z,7.49
2024-02-19T23:15:48.504Z,7.52
2024-02-19T23:18:15.559Z,7.53
2024-02-19T23:20:42.493Z,7.52
2024-02-19T23:23:09.305Z,7.52
2024-02-19T23:25:36.295Z,7.51
2024-02-19T23:28:03.250Z,7.48
2024-02-19T23:30:31.312Z,7.47
2024-02-19T23:32:58.405Z,7.47
2024-02-19T23:35:27.492Z,7.45
2024-02-19T23:37:54.481Z,7.43
2024-02-19T23:40:21.394Z,7.45
2024-02-19T23:42:48.485Z,7.49
2024-02-19T23:45:15.668Z,7.52
2024-02-19T23:47:43.344Z,7.53
2024-02-19T23:50:10.533Z,7.54
2024-02-19T23:52:41.268Z,7.54
2024-02-19T23:55:10.544Z,7.55
2024-02-19T23:57:41.238Z,7.56
